NCAR-RAP Real-Time Weather Data

Output produced by METARs form (23 January 2018  15:50 UTC)
found at http://weather.rap.ucar.edu/surface/
 
RJBT 230900Z 25007KT 190V310 2500 -SHSN FEW000 SCT010 BKN020 M01/M04 Q1013
RJBT 230839Z 25009KT 200V290 3000 -SHSN FEW000 SCT010 BKN020 M01/M05 Q1013 RMK 1ST000 3CU010 5CU020 A2992
RJBT 230822Z VRB09KT 5000 -SHSN FEW000 SCT020 M01/M04 Q1013 RMK 1ST000 3CU020 A2991
RJBT 230800Z 27010KT 220V320 3000 -SHSN FEW000 SCT020 BKN030 M01/M04 Q1013
RJBT 230700Z 24005KT 170V340 4500 -SHSN FEW000 SCT015 M00/M02 Q1012
RJBT 230628Z 29010G22KT 240V340 1500 -SHSN FEW000 SCT010 BKN015 M00/M03 Q1012 RMK 1ST000 3CU010 5CU015 A2990
RJBT 230600Z 29010G22KT 240V350 4500 -SHSN FEW000 SCT015 BKN025 01/M05 Q1012
RJBT 230500Z 27011G24KT 230V300 9999 VCSH FEW020 BKN040 04/M07 Q1011
RJBT 230400Z 25011G25KT 210V290 9999 -SHSN FEW020 SCT030 BKN040 04/M05 Q1010
RJBT 230300Z 28010KT 240V330 9999 -SHSN FEW005 SCT020 BKN035 04/M03 Q1010
RJBT 230200Z 27011G28KT 220V330 9999 -SHRA FEW005 SCT020 BKN035 05/M05 Q1009
RJBT 230100Z 26009G22KT 160V310 9999 FEW007 SCT030 06/M03 Q1009
RJBT 230000Z 25014G26KT 210V320 9999 VCSH FEW005 SCT030 06/M02 Q1009
RJBT 222330Z 25010KT 220V310 9999 VCSH FEW020 SCT035 05/M01 Q1008
RJBT 220900Z 34003KT 0300 FG FEW000 SCT070 M00/M00 Q1010
RJBT 220800Z VRB01KT 0200 FG -SHRA FEW000 SCT030 BKN070 M00/M00 Q1010
RJBT 220726Z 00000KT 0800 FG -SHRA FEW000 SCT030 BKN070 00/00 Q1010 RMK 1ST000 4CU030 7AC070 A2985 0300N FG BANK W-SE
RJBT 220717Z 01001KT 3000 -SHRASN BCFG FEW000 BKN030 BKN070 01/01 Q1011 RMK 1ST000 5CU030 7AC070 A2985 0300N FG BANK W-S
RJBT 220700Z 25002KT 5000 -SN PRFG FEW000 SCT020 BKN040 01/01 Q1010
RJBT 220644Z 23003KT 5000 -SN BCFG FEW000 BKN010 BKN040 00/00 Q1010 RMK 1ST000 5CU010 6CU040 A2985 0800SE FG ALL QUAD
RJBT 220600Z 00000KT 0500 SN VV006 00/00 Q1010
RJBT 220500Z 23003KT 0800 SN VV006 00/00 Q1011
RJBT 220400Z 19003KT 0900 SN VV004 00/00 Q1012
RJBT 220327Z 19003KT 4000 -SNRA BCFG FEW000 SCT005 BKN015 01/01 Q1012 RMK 1ST000 3ST005 6CU015 A2989 FG ALL QUAD
RJBT 220300Z 17003KT 150V210 5000 -RASN BCFG FEW000 SCT005 BKN040 02/02 Q1013
RJBT 220215Z VRB02KT 2500 -RA BCFG FEW000 SCT015 BKN040 03/03 Q1014 RMK 1ST000 3CU015 5SC040 A2996 1000S FG ALL QUAD
RJBT 220200Z VRB02KT 1500 -RA BCFG FEW000 SCT020 BKN040 03/03 Q1015
RJBT 220118Z 18002KT 3000 -RA BCFG FEW000 SCT040 BKN070 03/03 Q1016 RMK 1ST000 3SC040 6AC070 A3000 FG ALL QUAD
RJBT 220100Z 17003KT 9999 -RA BCFG FEW000 SCT050 BKN070 03/02 Q1016
RJBT 220010Z 21004KT 180V260 6000 BCFG FEW000 BKN070 OVC090 02/02 Q1016 RMK 1ST000 5AC070 8AS090 A3002 1000SE FG BANK N-SE
RJBT 220000Z 19005KT 0500 FG FEW000 SCT035 BKN100 02/02 Q1016
RJBT 212330Z VRB01KT 9999 PRFG FEW000 BKN035 BKN100 03/02 Q1016
RJBT 210900Z 33003KT 290V010 9999 FEW035 BKN060 06/M01 Q1020
RJBT 210800Z 30003KT 250V350 9999 FEW030 SCT050 BKN/// 06/M02 Q1020
RJBT 210700Z 32008KT 280V360 9999 FEW030 SCT040 07/M02 Q1019
RJBT 210600Z 32006KT 250V030 9999 FEW015 SCT025 07/02 Q1019
RJBT 210500Z VRB02KT 6000 FEW000 SCT020 07/05 Q1018
RJBT 210400Z VRB01KT 6000 -SHRA FEW010 SCT025 BKN035 05/04 Q1019